sim
Sign-in with your pilot id or email,
or register
Callsign
Passwort

Schedule Details

Flight Number: OEF9168
Departure: Nairobi Jomo Kenyatta International Airport (HKJK) at 22:00
Arrival: Munich Airport (EDDM) at 05:35

Weather Information
Getting current METAR information for HKJK 191100Z VRB03KT 9999 BKN028 24/13 Q1020 NOSIG
Getting current METAR information for EDDM 191120Z 08004KT 030V120 CAVOK 19/11 Q1019 NOSIG

Schedule Frequency

Route Map